createdAt,value
2023-01-27T00:01:16.907Z,16.88
2023-01-27T00:03:44.161Z,16.25
2023-01-27T00:06:13.779Z,18.42
2023-01-27T00:08:40.880Z,17.02
2023-01-27T00:11:26.365Z,16.30
2023-01-27T00:13:53.394Z,14.65
2023-01-27T00:16:20.441Z,16.90
2023-01-27T00:18:47.482Z,17.30
2023-01-27T00:21:33.040Z,16.88
2023-01-27T00:24:18.244Z,17.92
2023-01-27T00:26:45.071Z,16.80
2023-01-27T00:29:11.938Z,15.88
2023-01-27T00:31:57.259Z,14.80
2023-01-27T00:34:24.062Z,15.52
2023-01-27T00:36:51.058Z,15.68
2023-01-27T00:39:17.999Z,15.52
2023-01-27T00:41:44.806Z,15.50
2023-01-27T00:44:13.373Z,15.00
2023-01-27T00:46:41.559Z,15.90
2023-01-27T00:49:09.715Z,16.30
2023-01-27T00:51:36.909Z,16.23
2023-01-27T00:54:05.175Z,16.80
2023-01-27T00:56:32.371Z,16.50
2023-01-27T00:58:59.317Z,16.13
2023-01-27T01:01:26.305Z,16.85
2023-01-27T01:03:53.102Z,15.82
2023-01-27T01:06:20.576Z,15.45
2023-01-27T01:08:48.494Z,16.23
2023-01-27T01:11:16.640Z,14.60
2023-01-27T01:13:44.833Z,14.88
2023-01-27T01:16:20.594Z,15.35
2023-01-27T01:18:48.117Z,14.55
2023-01-27T01:21:15.865Z,16.00
2023-01-27T01:23:44.587Z,14.55
2023-01-27T01:26:13.062Z,15.18
2023-01-27T01:28:40.392Z,15.60
2023-01-27T01:31:09.462Z,17.33
2023-01-27T01:33:36.709Z,15.77
2023-01-27T01:36:08.999Z,14.35
2023-01-27T01:41:03.478Z,12.90
2023-01-27T01:43:30.339Z,14.05
2023-01-27T01:45:59.188Z,14.98
2023-01-27T01:48:47.460Z,14.38
2023-01-27T01:51:45.697Z,13.30
2023-01-27T01:54:15.184Z,13.02
2023-01-27T01:56:55.557Z,14.20
2023-01-27T01:59:43.697Z,13.93
2023-01-27T02:02:14.463Z,16.15
2023-01-27T02:04:50.194Z,14.55
2023-01-27T02:07:26.810Z,14.45
2023-01-27T02:09:56.986Z,15.43
2023-01-27T02:12:23.843Z,15.25
2023-01-27T02:14:50.710Z,15.38
2023-01-27T02:17:17.780Z,14.63
2023-01-27T02:20:09.445Z,14.10
2023-01-27T02:22:58.012Z,14.90
2023-01-27T02:25:41.300Z,14.95
2023-01-27T02:28:08.834Z,16.05
2023-01-27T02:30:35.844Z,14.88
2023-01-27T02:33:02.704Z,15.77
2023-01-27T02:35:38.174Z,15.02
2023-01-27T02:38:06.999Z,15.60
2023-01-27T02:40:34.532Z,14.18
2023-01-27T02:43:04.640Z,15.52
2023-01-27T02:45:31.870Z,15.48
2023-01-27T02:47:58.817Z,15.50
2023-01-27T02:50:26.076Z,15.57
2023-01-27T02:52:52.908Z,14.55
2023-01-27T02:55:19.770Z,15.02
2023-01-27T02:57:46.646Z,14.95
2023-01-27T03:00:13.922Z,15.93
2023-01-27T03:02:40.847Z,14.38
2023-01-27T03:05:08.075Z,14.48
2023-01-27T03:07:37.697Z,14.05
2023-01-27T03:10:04.904Z,14.02
2023-01-27T03:12:31.953Z,14.40
2023-01-27T03:15:17.360Z,14.45
2023-01-27T03:18:03.124Z,14.48
2023-01-27T03:20:29.980Z,14.63
2023-01-27T03:22:57.010Z,15.63
2023-01-27T03:25:23.904Z,15.65
2023-01-27T03:27:51.256Z,14.85
2023-01-27T03:30:18.291Z,14.50
2023-01-27T03:32:47.895Z,14.68
2023-01-27T03:35:15.996Z,14.45
2023-01-27T03:38:02.748Z,15.95
2023-01-27T03:40:48.011Z,14.73
2023-01-27T03:43:33.378Z,15.77
2023-01-27T03:46:19.392Z,16.23
2023-01-27T03:48:51.809Z,15.10
2023-01-27T03:53:47.208Z,15.35
2023-01-27T03:56:15.022Z,14.82
2023-01-27T03:58:42.634Z,16.08
2023-01-27T04:01:14.478Z,15.10
2023-01-27T04:04:00.960Z,15.65
2023-01-27T04:06:49.887Z,15.50
2023-01-27T04:09:41.526Z,15.02
2023-01-27T04:12:12.780Z,14.60
2023-01-27T04:17:24.835Z,15.85
2023-01-27T04:19:51.810Z,15.30
2023-01-27T04:22:18.748Z,15.23
2023-01-27T04:24:45.636Z,16.45
2023-01-27T04:27:13.976Z,14.77
2023-01-27T04:29:42.668Z,14.68
2023-01-27T04:32:14.015Z,15.73
2023-01-27T04:34:41.563Z,14.38
2023-01-27T04:37:09.547Z,16.80
2023-01-27T04:39:36.809Z,14.63
2023-01-27T04:42:03.874Z,14.63
2023-01-27T04:44:31.223Z,15.13
2023-01-27T04:46:58.092Z,15.40
2023-01-27T04:49:26.909Z,15.80
2023-01-27T04:51:54.490Z,16.25
2023-01-27T04:54:21.642Z,15.65
2023-01-27T04:56:59.911Z,17.05
2023-01-27T04:59:27.136Z,16.38
2023-01-27T05:01:54.371Z,17.38
2023-01-27T05:04:21.508Z,15.68
2023-01-27T05:06:48.691Z,17.52
2023-01-27T05:09:15.511Z,15.73
2023-01-27T05:11:42.228Z,15.35
2023-01-27T05:14:09.012Z,16.20
2023-01-27T05:16:38.144Z,16.02
2023-01-27T05:19:05.292Z,15.60
2023-01-27T05:21:32.249Z,15.00
2023-01-27T05:23:59.037Z,17.42
2023-01-27T05:26:28.076Z,15.75
2023-01-27T05:28:57.366Z,16.92
2023-01-27T05:31:27.789Z,15.57
2023-01-27T05:33:55.824Z,16.95
2023-01-27T05:36:24.842Z,16.25
2023-01-27T05:38:52.173Z,17.40
2023-01-27T05:41:19.888Z,16.23
2023-01-27T05:43:50.991Z,16.08
2023-01-27T05:46:23.953Z,16.52
2023-01-27T05:48:53.328Z,16.33
2023-01-27T05:51:21.811Z,16.35
2023-01-27T05:53:48.941Z,15.43
2023-01-27T05:56:18.253Z,16.42
2023-01-27T05:58:45.507Z,16.13
2023-01-27T06:01:22.729Z,16.15
2023-01-27T06:03:50.164Z,17.15
2023-01-27T06:06:20.216Z,16.73
2023-01-27T06:08:48.482Z,17.20
2023-01-27T06:11:16.945Z,16.33
2023-01-27T06:13:43.905Z,16.85
2023-01-27T06:16:14.040Z,16.75
2023-01-27T06:18:41.463Z,16.17
2023-01-27T06:21:10.206Z,17.20
2023-01-27T06:23:37.856Z,15.80
2023-01-27T06:26:09.481Z,16.65
2023-01-27T06:28:37.413Z,16.58
2023-01-27T06:31:09.366Z,16.83
2023-01-27T06:33:37.048Z,16.88
2023-01-27T06:36:08.220Z,15.98
2023-01-27T06:38:35.224Z,16.63
2023-01-27T06:41:02.387Z,16.35
2023-01-27T06:46:14.640Z,17.58
2023-01-27T06:48:42.147Z,17.95
2023-01-27T06:51:09.893Z,15.55
2023-01-27T06:53:41.465Z,17.65
2023-01-27T06:56:08.592Z,13.50
2023-01-27T06:58:36.959Z,16.17
2023-01-27T07:01:06.936Z,16.25
2023-01-27T07:05:59.865Z,20.10
2023-01-27T07:08:29.175Z,18.90
2023-01-27T07:10:56.559Z,21.63
2023-01-27T07:13:26.079Z,19.10
2023-01-27T07:15:59.074Z,18.58
2023-01-27T07:18:27.528Z,20.30
2023-01-27T07:20:55.742Z,20.13
2023-01-27T07:23:22.945Z,20.45
2023-01-27T07:25:52.733Z,19.13
2023-01-27T07:28:19.732Z,21.27
2023-01-27T07:30:51.388Z,20.33
2023-01-27T07:33:18.352Z,18.90
2023-01-27T07:35:49.889Z,22.05
2023-01-27T07:38:16.996Z,25.73
2023-01-27T07:40:44.076Z,21.25
2023-01-27T07:43:11.740Z,21.70
2023-01-27T07:45:38.608Z,25.45
2023-01-27T07:48:08.593Z,28.13
2023-01-27T07:50:39.168Z,25.55
2023-01-27T07:53:08.130Z,22.65
2023-01-27T07:55:34.958Z,23.92
2023-01-27T07:58:02.153Z,23.10
2023-01-27T08:00:29.619Z,19.80
2023-01-27T08:02:58.323Z,18.60
2023-01-27T08:05:25.592Z,17.42
2023-01-27T08:07:53.674Z,16.88
2023-01-27T08:10:20.668Z,17.90
2023-01-27T08:12:48.139Z,19.55
2023-01-27T08:15:18.657Z,17.65
2023-01-27T08:17:57.849Z,19.10
2023-01-27T08:20:27.304Z,17.80
2023-01-27T08:22:55.370Z,18.92
2023-01-27T08:25:22.977Z,18.77
2023-01-27T08:27:54.526Z,17.73
2023-01-27T08:30:22.723Z,17.40
2023-01-27T08:32:50.199Z,14.57
2023-01-27T08:35:17.292Z,17.02
2023-01-27T08:37:45.719Z,15.10
2023-01-27T08:40:14.329Z,14.55
2023-01-27T08:42:41.315Z,15.55
2023-01-27T08:45:09.343Z,14.30
2023-01-27T08:47:36.115Z,15.02
2023-01-27T08:50:03.059Z,14.18
2023-01-27T08:52:30.947Z,13.48
2023-01-27T08:54:58.594Z,13.95
2023-01-27T08:57:28.992Z,13.25
2023-01-27T08:59:55.881Z,11.65
2023-01-27T09:02:25.269Z,11.75
2023-01-27T09:04:52.320Z,11.75
2023-01-27T09:07:19.702Z,11.55
2023-01-27T09:10:01.032Z,12.23
2023-01-27T09:12:38.734Z,11.63
2023-01-27T09:15:08.089Z,11.63
2023-01-27T09:17:40.043Z,11.80
2023-01-27T09:20:23.819Z,11.55
2023-01-27T09:22:51.099Z,11.77
2023-01-27T09:25:20.789Z,12.70
2023-01-27T09:27:48.829Z,12.98
2023-01-27T09:30:16.929Z,11.98
2023-01-27T09:32:43.956Z,13.25
2023-01-27T09:35:11.586Z,12.73
2023-01-27T09:37:50.048Z,13.50
2023-01-27T09:40:43.622Z,14.55
2023-01-27T09:46:45.644Z,14.40
2023-01-27T09:49:53.429Z,14.00
2023-01-27T09:52:48.352Z,13.07
2023-01-27T09:55:19.363Z,12.27
2023-01-27T09:57:55.817Z,13.20
2023-01-27T10:00:37.924Z,12.65
2023-01-27T10:03:14.072Z,13.07
2023-01-27T10:05:41.033Z,13.68
2023-01-27T10:08:26.519Z,16.10
2023-01-27T10:11:05.827Z,13.38
2023-01-27T10:13:47.669Z,13.77
2023-01-27T10:16:42.353Z,13.68
2023-01-27T10:19:28.294Z,13.23
2023-01-27T10:22:11.691Z,13.70
2023-01-27T10:24:50.389Z,13.32
2023-01-27T10:27:22.920Z,13.93
2023-01-27T10:30:12.537Z,14.65
2023-01-27T10:33:20.742Z,14.07
2023-01-27T10:36:00.359Z,14.02
2023-01-27T10:38:50.634Z,13.23
2023-01-27T10:41:26.579Z,14.35
2023-01-27T10:44:05.622Z,13.35
2023-01-27T10:47:06.992Z,14.57
2023-01-27T10:49:53.728Z,13.55
2023-01-27T10:52:30.269Z,13.82
2023-01-27T10:55:04.312Z,12.52
2023-01-27T10:57:41.427Z,13.38
2023-01-27T11:01:14.018Z,12.82
2023-01-27T11:03:33.411Z,12.13
2023-01-27T11:06:05.101Z,11.85
2023-01-27T11:08:36.425Z,13.63
2023-01-27T11:11:26.499Z,16.40
2023-01-27T11:14:16.920Z,12.60
2023-01-27T11:16:51.803Z,10.98
2023-01-27T11:19:31.448Z,12.82
2023-01-27T11:22:08.615Z,10.93
2023-01-27T11:24:52.011Z,9.73
2023-01-27T11:27:37.957Z,11.43
2023-01-27T11:30:35.364Z,9.75
2023-01-27T11:33:30.242Z,10.43
2023-01-27T11:35:57.369Z,10.32
2023-01-27T11:38:29.442Z,10.07
2023-01-27T11:40:59.697Z,9.65
2023-01-27T11:43:30.115Z,9.73
2023-01-27T11:46:02.863Z,10.35
2023-01-27T11:48:44.908Z,9.10
2023-01-27T11:51:20.496Z,10.10
2023-01-27T11:53:59.389Z,11.43
2023-01-27T11:56:28.465Z,9.95
2023-01-27T11:59:04.981Z,10.23
2023-01-27T12:02:02.822Z,9.93
2023-01-27T12:04:40.524Z,10.48
2023-01-27T12:07:22.364Z,10.85
2023-01-27T12:09:49.926Z,12.95
2023-01-27T12:12:30.828Z,11.77
2023-01-27T12:15:05.176Z,10.35
2023-01-27T12:17:46.297Z,10.70
2023-01-27T12:20:43.652Z,11.35
2023-01-27T12:23:34.276Z,10.20
2023-01-27T12:26:14.139Z,9.93
2023-01-27T12:28:44.006Z,9.70
2023-01-27T12:31:27.477Z,9.77
2023-01-27T12:34:08.367Z,9.18
2023-01-27T12:36:44.239Z,10.10
2023-01-27T12:39:37.621Z,9.55
2023-01-27T12:42:04.713Z,9.63
2023-01-27T12:44:46.649Z,10.13
2023-01-27T12:47:32.536Z,9.82
2023-01-27T12:50:33.910Z,9.65
2023-01-27T12:53:13.995Z,10.25
2023-01-27T12:58:40.996Z,9.95
2023-01-27T13:01:41.636Z,10.55
2023-01-27T13:04:31.597Z,10.75
2023-01-27T13:07:14.501Z,10.45
2023-01-27T13:09:53.588Z,10.05
2023-01-27T13:12:28.423Z,16.08
2023-01-27T13:15:24.262Z,9.75
2023-01-27T13:17:54.049Z,10.20
2023-01-27T13:20:33.902Z,11.07
2023-01-27T13:23:19.448Z,10.27
2023-01-27T13:26:09.287Z,11.05
2023-01-27T13:28:59.547Z,10.68
2023-01-27T13:31:32.586Z,10.63
2023-01-27T13:34:44.090Z,11.02
2023-01-27T13:37:21.408Z,9.80
2023-01-27T13:40:03.361Z,11.65
2023-01-27T13:43:04.149Z,10.80
2023-01-27T13:45:37.904Z,9.90
2023-01-27T13:48:32.903Z,10.85
2023-01-27T13:51:17.348Z,11.32
2023-01-27T13:53:51.277Z,11.65
2023-01-27T13:56:33.662Z,11.05
2023-01-27T13:59:19.967Z,10.18
2023-01-27T14:02:23.545Z,9.98
2023-01-27T14:08:37.071Z,10.13
2023-01-27T14:11:04.762Z,11.75
2023-01-27T14:13:34.562Z,13.18
2023-01-27T14:16:31.826Z,13.23
2023-01-27T14:19:44.113Z,9.77
2023-01-27T14:22:36.978Z,10.32
2023-01-27T14:25:09.777Z,10.57
2023-01-27T14:27:46.075Z,10.48
2023-01-27T14:30:34.247Z,10.02
2023-01-27T14:33:43.798Z,11.05
2023-01-27T14:36:21.384Z,10.30
2023-01-27T14:39:05.276Z,10.38
2023-01-27T14:41:54.128Z,10.32
2023-01-27T14:45:01.066Z,9.70
2023-01-27T14:47:45.952Z,11.20
2023-01-27T14:50:19.030Z,10.90
2023-01-27T14:53:06.107Z,10.85
2023-01-27T14:56:04.242Z,10.43
2023-01-27T14:58:58.653Z,10.60
2023-01-27T15:01:47.213Z,10.82
2023-01-27T15:04:17.040Z,10.90
2023-01-27T15:06:47.821Z,11.25
2023-01-27T15:09:20.752Z,11.60
2023-01-27T15:12:01.492Z,11.75
2023-01-27T15:14:34.463Z,13.82
2023-01-27T15:17:34.647Z,11.93
2023-01-27T15:20:22.776Z,11.27
2023-01-27T15:23:01.579Z,10.93
2023-01-27T15:25:39.471Z,10.80
2023-01-27T15:28:12.056Z,10.88
2023-01-27T15:30:38.922Z,10.88
2023-01-27T15:33:43.409Z,12.25
2023-01-27T15:36:40.490Z,13.00
2023-01-27T15:39:10.578Z,12.43
2023-01-27T15:41:56.433Z,15.35
2023-01-27T15:44:33.176Z,14.95
2023-01-27T15:47:22.328Z,13.35
2023-01-27T15:52:46.547Z,12.88
2023-01-27T15:55:26.900Z,11.77
2023-01-27T15:58:31.579Z,16.45
2023-01-27T16:00:59.688Z,17.77
2023-01-27T16:03:33.464Z,23.15
2023-01-27T16:06:29.500Z,22.05
2023-01-27T16:09:13.139Z,22.40
2023-01-27T16:11:43.490Z,21.92
2023-01-27T16:14:21.250Z,23.55
2023-01-27T16:16:53.388Z,13.75
2023-01-27T16:19:31.429Z,12.68
2023-01-27T16:22:03.857Z,12.30
2023-01-27T16:27:33.707Z,13.68
2023-01-27T16:30:21.739Z,21.35
2023-01-27T16:33:06.609Z,20.48
2023-01-27T16:35:43.794Z,20.70
2023-01-27T16:38:29.108Z,19.63
2023-01-27T16:41:01.568Z,19.23
2023-01-27T16:46:01.919Z,14.60
2023-01-27T16:48:44.090Z,21.05
2023-01-27T16:51:14.064Z,15.48
2023-01-27T16:53:45.823Z,14.32
2023-01-27T16:56:23.354Z,9.93
2023-01-27T16:58:51.712Z,16.52
2023-01-27T17:01:56.545Z,16.40
2023-01-27T17:04:26.933Z,14.55
2023-01-27T17:06:57.666Z,15.63
2023-01-27T17:09:35.232Z,14.27
2023-01-27T17:12:02.353Z,14.43
2023-01-27T17:14:47.630Z,14.80
2023-01-27T17:17:20.902Z,19.52
2023-01-27T17:20:35.159Z,19.08
2023-01-27T17:23:04.014Z,17.65
2023-01-27T17:25:39.726Z,16.63
2023-01-27T17:28:17.634Z,16.52
2023-01-27T17:30:48.241Z,15.60
2023-01-27T17:33:21.942Z,16.02
2023-01-27T17:35:52.492Z,15.10
2023-01-27T17:38:24.782Z,15.43
2023-01-27T17:40:54.307Z,17.77
2023-01-27T17:43:24.121Z,18.73
2023-01-27T17:46:19.944Z,17.98
2023-01-27T17:49:01.308Z,19.33
2023-01-27T17:51:57.647Z,17.45
2023-01-27T17:54:41.702Z,16.55
2023-01-27T17:57:27.184Z,17.58
2023-01-27T17:59:59.964Z,18.27
2023-01-27T18:02:30.141Z,17.20
2023-01-27T18:05:02.501Z,17.50
2023-01-27T18:07:30.051Z,17.40
2023-01-27T18:09:57.413Z,16.20
2023-01-27T18:12:42.279Z,19.65
2023-01-27T18:15:38.168Z,17.38
2023-01-27T18:18:21.780Z,17.85
2023-01-27T18:21:05.055Z,14.40
2023-01-27T18:23:35.004Z,18.15
2023-01-27T18:26:24.144Z,16.30
2023-01-27T18:28:56.333Z,16.73
2023-01-27T18:31:26.268Z,15.57
2023-01-27T18:34:25.056Z,17.77
2023-01-27T18:37:20.748Z,16.00
2023-01-27T18:39:47.749Z,15.75
2023-01-27T18:42:20.256Z,16.30
2023-01-27T18:44:56.949Z,16.35
2023-01-27T18:47:34.864Z,16.05
2023-01-27T18:50:10.705Z,15.38
2023-01-27T18:52:38.215Z,17.42
2023-01-27T18:55:23.607Z,17.33
2023-01-27T18:57:56.035Z,16.17
2023-01-27T19:02:59.019Z,15.15
2023-01-27T19:05:27.471Z,16.67
2023-01-27T19:07:54.481Z,18.05
2023-01-27T19:10:39.321Z,17.73
2023-01-27T19:13:19.273Z,17.85
2023-01-27T19:15:57.310Z,18.58
2023-01-27T19:18:26.371Z,19.58
2023-01-27T19:20:53.340Z,18.85
2023-01-27T19:23:21.589Z,19.00
2023-01-27T19:25:51.375Z,16.65
2023-01-27T19:28:21.312Z,17.10
2023-01-27T19:30:48.275Z,15.90
2023-01-27T19:33:23.851Z,17.38
2023-01-27T19:36:00.131Z,19.60
2023-01-27T19:38:28.941Z,20.73
2023-01-27T19:40:56.147Z,24.40
2023-01-27T19:43:23.094Z,24.20
2023-01-27T19:45:50.922Z,22.33
2023-01-27T19:48:23.551Z,28.48
2023-01-27T19:50:51.560Z,24.75
2023-01-27T19:53:19.798Z,18.70
2023-01-27T19:55:50.505Z,19.27
2023-01-27T19:58:26.300Z,24.58
2023-01-27T20:00:54.662Z,21.42
2023-01-27T20:03:23.118Z,18.92
2023-01-27T20:05:50.176Z,20.05
2023-01-27T20:08:19.408Z,19.52
2023-01-27T20:10:46.516Z,19.65
2023-01-27T20:13:20.759Z,17.25
2023-01-27T20:15:47.943Z,16.52
2023-01-27T20:18:16.441Z,17.05
2023-01-27T20:20:44.348Z,24.23
2023-01-27T20:23:15.496Z,21.33
2023-01-27T20:25:42.776Z,16.95
2023-01-27T20:28:09.934Z,17.17
2023-01-27T20:30:36.945Z,16.90
2023-01-27T20:33:04.503Z,16.90
2023-01-27T20:35:31.735Z,17.63
2023-01-27T20:37:58.655Z,17.55
2023-01-27T20:40:28.232Z,17.83
2023-01-27T20:42:55.758Z,19.70
2023-01-27T20:45:23.516Z,17.35
2023-01-27T20:47:51.988Z,16.42
2023-01-27T20:50:20.910Z,16.42
2023-01-27T20:52:50.978Z,16.60
2023-01-27T20:55:22.538Z,16.52
2023-01-27T20:57:49.488Z,21.90
2023-01-27T21:00:21.383Z,22.80
2023-01-27T21:02:49.424Z,22.60
2023-01-27T21:05:16.950Z,24.10
2023-01-27T21:07:44.115Z,17.25
2023-01-27T21:10:11.782Z,19.52
2023-01-27T21:12:38.723Z,14.55
2023-01-27T21:15:09.747Z,15.88
2023-01-27T21:17:37.426Z,17.52
2023-01-27T21:20:04.570Z,18.58
2023-01-27T21:22:31.691Z,15.38
2023-01-27T21:24:58.744Z,14.60
2023-01-27T21:27:25.743Z,15.82
2023-01-27T21:29:53.299Z,17.60
2023-01-27T21:32:20.465Z,17.67
2023-01-27T21:34:47.280Z,15.95
2023-01-27T21:37:14.108Z,14.75
2023-01-27T21:39:40.908Z,14.45
2023-01-27T21:42:12.659Z,13.73
2023-01-27T21:44:58.120Z,13.82
2023-01-27T21:47:24.970Z,13.95
2023-01-27T21:50:00.565Z,14.60
2023-01-27T21:52:42.263Z,16.63
2023-01-27T21:55:14.533Z,10.63
2023-01-27T22:00:11.039Z,13.60
2023-01-27T22:02:38.326Z,13.50
2023-01-27T22:05:06.129Z,14.10
2023-01-27T22:07:38.296Z,12.57
2023-01-27T22:10:10.809Z,13.05
2023-01-27T22:15:06.858Z,11.70
2023-01-27T22:17:34.892Z,11.40
2023-01-27T22:20:02.667Z,11.50
2023-01-27T22:22:29.520Z,11.73
2023-01-27T22:24:56.442Z,11.95
2023-01-27T22:27:23.649Z,11.30
2023-01-27T22:29:50.574Z,11.30
2023-01-27T22:32:17.493Z,11.75
2023-01-27T22:34:44.601Z,11.45
2023-01-27T22:37:11.491Z,12.02
2023-01-27T22:39:38.284Z,10.23
2023-01-27T22:42:05.193Z,11.35
2023-01-27T22:44:31.971Z,10.05
2023-01-27T22:46:58.860Z,10.07
2023-01-27T22:49:25.659Z,11.07
2023-01-27T22:51:52.564Z,10.93
2023-01-27T22:54:19.587Z,9.32
2023-01-27T22:56:46.533Z,9.77
2023-01-27T22:59:13.786Z,9.98
2023-01-27T23:01:40.795Z,10.60
2023-01-27T23:04:07.746Z,11.68
2023-01-27T23:06:34.603Z,11.90
2023-01-27T23:09:01.465Z,12.05
2023-01-27T23:11:28.469Z,10.52
2023-01-27T23:13:55.549Z,11.07
2023-01-27T23:16:23.506Z,12.63
2023-01-27T23:18:51.967Z,11.43
2023-01-27T23:21:18.865Z,11.85
2023-01-27T23:23:45.917Z,11.77
2023-01-27T23:26:14.743Z,11.45
2023-01-27T23:28:41.579Z,11.68
2023-01-27T23:31:12.909Z,11.70
2023-01-27T23:33:41.569Z,11.70
2023-01-27T23:36:10.146Z,10.60
2023-01-27T23:38:38.051Z,8.50
2023-01-27T23:41:14.383Z,9.75
2023-01-27T23:43:41.342Z,9.38
2023-01-27T23:46:08.242Z,11.15
2023-01-27T23:48:35.245Z,9.48
2023-01-27T23:51:12.459Z,10.38
2023-01-27T23:53:39.303Z,10.80
2023-01-27T23:56:06.791Z,10.60
2023-01-27T23:58:33.688Z,10.48
